KTOI/TOI METAR and TAF weather

Enter ICAO airport designator
Station Type Date Time Source
KTOI METAR 2019/08/20 09:53 UTC NOAA

KTOI 200953Z AUTO 12003KT 2SM BR OVC002 22/22 A3009 RMK AO2 SLP183 T02220222


Station Type Date Time Source
KTOI Decoded METAR 2019/08/20 09:53 UTC NOAA

TROY MUNICIPAL AIRPORT, AL, United States (KTOI) 31-52N 086-01W 118M
Aug 20, 2019 - 05:53 AM EDT / 2019.08.20 0953 UTC
Wind: from the ESE (120 degrees) at 3 MPH (3 KT):0
Visibility: 2 mile(s):0
Sky conditions: overcast
Weather: mist
Temperature: 72.0 F (22.2 C)
Dew Point: 72.0 F (22.2 C)
Relative Humidity: 100%
Pressure (altimeter): 30.09 in. Hg (1018 hPa)
ob: KTOI 200953Z AUTO 12003KT 2SM BR OVC002 22/22 A3009 RMK AO2 SLP183 T02220222
cycle: 10

Station Type Date Time Source
KTOI TAF 2019/08/20 06:22 UTC NOAA

TAF KTOI 200520Z 2006/2106 00000KT 5SM BR BKN250
FM200800 00000KT 3SM BR FEW003
TEMPO 2009/2012 1/2SM FG BKN003
FM201400 13005KT P6SM FEW050 PROB30 2018/2024 2SM TSRA BKN035CB

Example: see airport list